sensor_id;sensor_type;location;lat;lon;timestamp;P1;durP1;ratioP1;P2;durP2;ratioP2
77722;SDS011;67811;42.656;23.394;2023-02-15T00:00:13;43.67;;;19.23;;
77722;SDS011;67811;42.656;23.394;2023-02-15T00:02:44;42.17;;;20.70;;
77722;SDS011;67811;42.656;23.394;2023-02-15T00:05:14;43.70;;;19.80;;
77722;SDS011;67811;42.656;23.394;2023-02-15T00:07:47;44.60;;;20.95;;
77722;SDS011;67811;42.656;23.394;2023-02-15T00:10:17;44.92;;;19.75;;
77722;SDS011;67811;42.656;23.394;2023-02-15T00:12:48;43.97;;;21.10;;
77722;SDS011;67811;42.656;23.394;2023-02-15T00:15:19;47.55;;;19.27;;
77722;SDS011;67811;42.656;23.394;2023-02-15T00:17:49;46.40;;;20.65;;
77722;SDS011;67811;42.656;23.394;2023-02-15T00:20:20;50.75;;;22.77;;
77722;SDS011;67811;42.656;23.394;2023-02-15T00:22:52;39.75;;;19.63;;
77722;SDS011;67811;42.656;23.394;2023-02-15T00:25:22;43.13;;;21.70;;
77722;SDS011;67811;42.656;23.394;2023-02-15T00:27:53;42.63;;;21.00;;
77722;SDS011;67811;42.656;23.394;2023-02-15T00:30:23;44.28;;;21.88;;
77722;SDS011;67811;42.656;23.394;2023-02-15T00:32:54;44.67;;;21.65;;
77722;SDS011;67811;42.656;23.394;2023-02-15T00:35:25;45.13;;;21.85;;
77722;SDS011;67811;42.656;23.394;2023-02-15T00:37:57;45.13;;;19.60;;
77722;SDS011;67811;42.656;23.394;2023-02-15T00:40:27;36.75;;;17.95;;
77722;SDS011;67811;42.656;23.394;2023-02-15T00:42:58;43.60;;;21.30;;
77722;SDS011;67811;42.656;23.394;2023-02-15T00:45:28;39.17;;;19.10;;
77722;SDS011;67811;42.656;23.394;2023-02-15T00:47:59;40.83;;;20.20;;
77722;SDS011;67811;42.656;23.394;2023-02-15T00:50:29;41.55;;;20.13;;
77722;SDS011;67811;42.656;23.394;2023-02-15T00:53:01;47.17;;;21.08;;
77722;SDS011;67811;42.656;23.394;2023-02-15T00:55:32;46.88;;;22.27;;
77722;SDS011;67811;42.656;23.394;2023-02-15T00:58:03;41.72;;;18.15;;
77722;SDS011;67811;42.656;23.394;2023-02-15T01:00:33;39.22;;;18.52;;
77722;SDS011;67811;42.656;23.394;2023-02-15T01:03:04;42.67;;;19.92;;
77722;SDS011;67811;42.656;23.394;2023-02-15T01:05:35;39.22;;;18.65;;
77722;SDS011;67811;42.656;23.394;2023-02-15T01:08:07;44.13;;;18.58;;
77722;SDS011;67811;42.656;23.394;2023-02-15T01:10:38;43.67;;;20.27;;
77722;SDS011;67811;42.656;23.394;2023-02-15T01:13:09;42.95;;;20.52;;
77722;SDS011;67811;42.656;23.394;2023-02-15T01:15:40;40.35;;;19.08;;
77722;SDS011;67811;42.656;23.394;2023-02-15T01:18:11;37.00;;;18.67;;
77722;SDS011;67811;42.656;23.394;2023-02-15T01:20:42;39.97;;;19.23;;
77722;SDS011;67811;42.656;23.394;2023-02-15T01:23:14;40.45;;;20.05;;
77722;SDS011;67811;42.656;23.394;2023-02-15T01:25:45;42.42;;;19.95;;
77722;SDS011;67811;42.656;23.394;2023-02-15T01:28:15;37.90;;;18.02;;
77722;SDS011;67811;42.656;23.394;2023-02-15T01:30:46;40.70;;;19.73;;
77722;SDS011;67811;42.656;23.394;2023-02-15T01:33:16;44.55;;;19.58;;
77722;SDS011;67811;42.656;23.394;2023-02-15T01:35:47;38.17;;;20.10;;
77722;SDS011;67811;42.656;23.394;2023-02-15T01:38:19;36.42;;;17.17;;
77722;SDS011;67811;42.656;23.394;2023-02-15T01:40:50;35.72;;;17.80;;
77722;SDS011;67811;42.656;23.394;2023-02-15T01:43:20;43.92;;;20.30;;
77722;SDS011;67811;42.656;23.394;2023-02-15T01:46:08;37.85;;;18.13;;
77722;SDS011;67811;42.656;23.394;2023-02-15T01:48:42;43.58;;;20.23;;
77722;SDS011;67811;42.656;23.394;2023-02-15T01:51:16;35.35;;;18.90;;
77722;SDS011;67811;42.656;23.394;2023-02-15T01:53:53;32.25;;;15.77;;
77722;SDS011;67811;42.656;23.394;2023-02-15T01:56:29;37.28;;;19.25;;
77722;SDS011;67811;42.656;23.394;2023-02-15T01:59:04;37.08;;;18.08;;
77722;SDS011;67811;42.656;23.394;2023-02-15T02:01:41;40.10;;;17.80;;
77722;SDS011;67811;42.656;23.394;2023-02-15T02:04:13;37.70;;;17.60;;
77722;SDS011;67811;42.656;23.394;2023-02-15T02:06:47;38.13;;;20.15;;
77722;SDS011;67811;42.656;23.394;2023-02-15T02:09:20;35.72;;;18.05;;
77722;SDS011;67811;42.656;23.394;2023-02-15T02:11:51;41.63;;;18.40;;
77722;SDS011;67811;42.656;23.394;2023-02-15T02:14:22;39.20;;;19.92;;
77722;SDS011;67811;42.656;23.394;2023-02-15T02:16:56;33.15;;;16.30;;
77722;SDS011;67811;42.656;23.394;2023-02-15T02:19:49;40.03;;;18.70;;
77722;SDS011;67811;42.656;23.394;2023-02-15T02:22:43;44.95;;;19.98;;
77722;SDS011;67811;42.656;23.394;2023-02-15T02:28:42;32.67;;;16.45;;
77722;SDS011;67811;42.656;23.394;2023-02-15T02:31:36;36.38;;;18.17;;
77722;SDS011;67811;42.656;23.394;2023-02-15T02:34:31;37.08;;;17.63;;
77722;SDS011;67811;42.656;23.394;2023-02-15T02:37:07;33.45;;;16.00;;
77722;SDS011;67811;42.656;23.394;2023-02-15T02:39:46;34.10;;;18.83;;
77722;SDS011;67811;42.656;23.394;2023-02-15T02:42:24;37.17;;;18.92;;
77722;SDS011;67811;42.656;23.394;2023-02-15T02:45:03;39.65;;;19.45;;
77722;SDS011;67811;42.656;23.394;2023-02-15T02:47:38;38.13;;;17.77;;
77722;SDS011;67811;42.656;23.394;2023-02-15T02:50:16;32.85;;;18.38;;
77722;SDS011;67811;42.656;23.394;2023-02-15T02:52:48;35.55;;;16.85;;
77722;SDS011;67811;42.656;23.394;2023-02-15T02:55:21;35.90;;;17.88;;
77722;SDS011;67811;42.656;23.394;2023-02-15T02:57:57;33.92;;;16.92;;
77722;SDS011;67811;42.656;23.394;2023-02-15T03:00:39;36.25;;;17.10;;
77722;SDS011;67811;42.656;23.394;2023-02-15T03:03:15;35.25;;;16.65;;
77722;SDS011;67811;42.656;23.394;2023-02-15T03:05:53;38.78;;;19.00;;
77722;SDS011;67811;42.656;23.394;2023-02-15T03:08:28;35.13;;;16.90;;
77722;SDS011;67811;42.656;23.394;2023-02-15T03:11:04;35.90;;;17.63;;
77722;SDS011;67811;42.656;23.394;2023-02-15T03:13:35;38.17;;;18.38;;
77722;SDS011;67811;42.656;23.394;2023-02-15T03:16:05;38.35;;;17.95;;
77722;SDS011;67811;42.656;23.394;2023-02-15T03:18:41;36.70;;;18.15;;
77722;SDS011;67811;42.656;23.394;2023-02-15T03:21:15;33.80;;;17.38;;
77722;SDS011;67811;42.656;23.394;2023-02-15T03:23:46;35.13;;;17.33;;
77722;SDS011;67811;42.656;23.394;2023-02-15T03:26:20;36.03;;;17.45;;
77722;SDS011;67811;42.656;23.394;2023-02-15T03:28:54;40.72;;;19.30;;
77722;SDS011;67811;42.656;23.394;2023-02-15T03:31:29;36.67;;;17.38;;
77722;SDS011;67811;42.656;23.394;2023-02-15T03:34:04;35.78;;;17.25;;
77722;SDS011;67811;42.656;23.394;2023-02-15T03:36:41;34.85;;;17.48;;
77722;SDS011;67811;42.656;23.394;2023-02-15T03:39:18;35.70;;;17.45;;
77722;SDS011;67811;42.656;23.394;2023-02-15T03:41:55;35.13;;;17.00;;
77722;SDS011;67811;42.656;23.394;2023-02-15T03:44:29;35.92;;;16.52;;
77722;SDS011;67811;42.656;23.394;2023-02-15T03:47:03;34.35;;;16.88;;
77722;SDS011;67811;42.656;23.394;2023-02-15T03:49:39;36.15;;;18.55;;
77722;SDS011;67811;42.656;23.394;2023-02-15T03:52:15;37.03;;;17.90;;
77722;SDS011;67811;42.656;23.394;2023-02-15T03:54:47;31.75;;;14.98;;
77722;SDS011;67811;42.656;23.394;2023-02-15T03:57:20;35.70;;;18.27;;
77722;SDS011;67811;42.656;23.394;2023-02-15T03:59:52;33.50;;;16.40;;
77722;SDS011;67811;42.656;23.394;2023-02-15T04:02:24;31.42;;;15.77;;
77722;SDS011;67811;42.656;23.394;2023-02-15T04:04:58;34.83;;;17.25;;
77722;SDS011;67811;42.656;23.394;2023-02-15T04:07:30;37.58;;;17.60;;
77722;SDS011;67811;42.656;23.394;2023-02-15T04:10:01;34.33;;;16.25;;
77722;SDS011;67811;42.656;23.394;2023-02-15T04:12:31;34.40;;;17.23;;
77722;SDS011;67811;42.656;23.394;2023-02-15T04:15:02;34.50;;;15.18;;
77722;SDS011;67811;42.656;23.394;2023-02-15T04:17:33;31.23;;;16.83;;
77722;SDS011;67811;42.656;23.394;2023-02-15T04:20:06;34.95;;;15.95;;
77722;SDS011;67811;42.656;23.394;2023-02-15T04:22:39;33.10;;;17.40;;
77722;SDS011;67811;42.656;23.394;2023-02-15T04:25:10;37.95;;;16.38;;
77722;SDS011;67811;42.656;23.394;2023-02-15T04:27:41;34.00;;;17.67;;
77722;SDS011;67811;42.656;23.394;2023-02-15T04:30:13;34.17;;;17.60;;
77722;SDS011;67811;42.656;23.394;2023-02-15T04:32:44;31.42;;;17.40;;
77722;SDS011;67811;42.656;23.394;2023-02-15T04:35:15;33.30;;;16.13;;
77722;SDS011;67811;42.656;23.394;2023-02-15T04:37:48;36.88;;;17.42;;
77722;SDS011;67811;42.656;23.394;2023-02-15T04:40:18;31.02;;;17.13;;
77722;SDS011;67811;42.656;23.394;2023-02-15T04:42:49;31.48;;;15.48;;
77722;SDS011;67811;42.656;23.394;2023-02-15T04:45:20;33.25;;;17.73;;
77722;SDS011;67811;42.656;23.394;2023-02-15T04:47:50;30.10;;;16.30;;
77722;SDS011;67811;42.656;23.394;2023-02-15T04:50:21;37.17;;;17.20;;
77722;SDS011;67811;42.656;23.394;2023-02-15T04:52:53;33.70;;;17.65;;
77722;SDS011;67811;42.656;23.394;2023-02-15T04:55:24;32.60;;;16.13;;
77722;SDS011;67811;42.656;23.394;2023-02-15T04:58:38;30.45;;;16.40;;
77722;SDS011;67811;42.656;23.394;2023-02-15T05:01:08;36.38;;;19.10;;
77722;SDS011;67811;42.656;23.394;2023-02-15T05:03:39;32.95;;;16.88;;
77722;SDS011;67811;42.656;23.394;2023-02-15T05:06:09;36.67;;;17.73;;
77722;SDS011;67811;42.656;23.394;2023-02-15T05:08:40;38.75;;;16.80;;
77722;SDS011;67811;42.656;23.394;2023-02-15T05:11:11;37.05;;;18.92;;
77722;SDS011;67811;42.656;23.394;2023-02-15T05:13:43;34.22;;;16.33;;
77722;SDS011;67811;42.656;23.394;2023-02-15T05:16:13;39.03;;;18.65;;
77722;SDS011;67811;42.656;23.394;2023-02-15T05:18:44;30.85;;;15.43;;
77722;SDS011;67811;42.656;23.394;2023-02-15T05:21:14;29.67;;;15.73;;
77722;SDS011;67811;42.656;23.394;2023-02-15T05:23:45;31.52;;;16.70;;
77722;SDS011;67811;42.656;23.394;2023-02-15T05:26:16;34.28;;;18.73;;
77722;SDS011;67811;42.656;23.394;2023-02-15T05:28:49;29.83;;;16.10;;
77722;SDS011;67811;42.656;23.394;2023-02-15T05:31:20;34.38;;;17.30;;
77722;SDS011;67811;42.656;23.394;2023-02-15T05:33:51;35.92;;;19.33;;
77722;SDS011;67811;42.656;23.394;2023-02-15T05:36:21;37.88;;;18.00;;
77722;SDS011;67811;42.656;23.394;2023-02-15T05:38:52;33.08;;;16.10;;
77722;SDS011;67811;42.656;23.394;2023-02-15T05:41:22;32.45;;;16.10;;
77722;SDS011;67811;42.656;23.394;2023-02-15T05:43:56;32.65;;;16.80;;
77722;SDS011;67811;42.656;23.394;2023-02-15T05:46:26;34.00;;;15.98;;
77722;SDS011;67811;42.656;23.394;2023-02-15T05:48:57;34.03;;;17.33;;
77722;SDS011;67811;42.656;23.394;2023-02-15T05:51:27;32.03;;;17.33;;
77722;SDS011;67811;42.656;23.394;2023-02-15T05:53:58;31.08;;;17.00;;
77722;SDS011;67811;42.656;23.394;2023-02-15T05:56:28;30.42;;;16.70;;
77722;SDS011;67811;42.656;23.394;2023-02-15T05:59:01;39.95;;;17.25;;
77722;SDS011;67811;42.656;23.394;2023-02-15T06:01:31;39.25;;;17.98;;
77722;SDS011;67811;42.656;23.394;2023-02-15T06:04:02;35.35;;;19.17;;
77722;SDS011;67811;42.656;23.394;2023-02-15T06:06:32;35.70;;;17.60;;
77722;SDS011;67811;42.656;23.394;2023-02-15T06:09:03;33.20;;;17.00;;
77722;SDS011;67811;42.656;23.394;2023-02-15T06:11:34;31.20;;;16.00;;
77722;SDS011;67811;42.656;23.394;2023-02-15T06:14:06;33.72;;;17.52;;
77722;SDS011;67811;42.656;23.394;2023-02-15T06:16:36;35.75;;;17.50;;
77722;SDS011;67811;42.656;23.394;2023-02-15T06:19:07;34.17;;;16.65;;
77722;SDS011;67811;42.656;23.394;2023-02-15T06:21:37;29.45;;;15.77;;
77722;SDS011;67811;42.656;23.394;2023-02-15T06:24:08;35.78;;;17.80;;
77722;SDS011;67811;42.656;23.394;2023-02-15T06:26:39;33.45;;;16.67;;
77722;SDS011;67811;42.656;23.394;2023-02-15T06:29:11;32.92;;;16.73;;
77722;SDS011;67811;42.656;23.394;2023-02-15T06:31:41;30.67;;;16.35;;
77722;SDS011;67811;42.656;23.394;2023-02-15T06:34:12;31.25;;;16.40;;
77722;SDS011;67811;42.656;23.394;2023-02-15T06:36:42;29.23;;;16.05;;
77722;SDS011;67811;42.656;23.394;2023-02-15T06:39:13;29.17;;;15.40;;
77722;SDS011;67811;42.656;23.394;2023-02-15T06:41:44;30.63;;;16.38;;
77722;SDS011;67811;42.656;23.394;2023-02-15T06:44:16;27.70;;;15.10;;
77722;SDS011;67811;42.656;23.394;2023-02-15T06:46:47;32.00;;;15.60;;
77722;SDS011;67811;42.656;23.394;2023-02-15T06:49:17;31.80;;;16.92;;
77722;SDS011;67811;42.656;23.394;2023-02-15T06:51:48;28.85;;;14.70;;
77722;SDS011;67811;42.656;23.394;2023-02-15T06:54:19;33.95;;;15.82;;
77722;SDS011;67811;42.656;23.394;2023-02-15T06:56:49;28.02;;;14.55;;
77722;SDS011;67811;42.656;23.394;2023-02-15T06:59:21;29.58;;;16.67;;
77722;SDS011;67811;42.656;23.394;2023-02-15T07:01:52;26.95;;;14.98;;
77722;SDS011;67811;42.656;23.394;2023-02-15T07:04:23;36.45;;;15.93;;
77722;SDS011;67811;42.656;23.394;2023-02-15T07:06:53;30.60;;;16.45;;
77722;SDS011;67811;42.656;23.394;2023-02-15T07:09:24;27.92;;;15.02;;
77722;SDS011;67811;42.656;23.394;2023-02-15T07:11:54;25.02;;;13.77;;
77722;SDS011;67811;42.656;23.394;2023-02-15T07:14:26;27.95;;;14.32;;
77722;SDS011;67811;42.656;23.394;2023-02-15T07:16:57;25.35;;;13.23;;
77722;SDS011;67811;42.656;23.394;2023-02-15T07:19:28;22.60;;;12.98;;
77722;SDS011;67811;42.656;23.394;2023-02-15T07:21:58;23.27;;;14.75;;
77722;SDS011;67811;42.656;23.394;2023-02-15T07:24:30;26.25;;;15.23;;
77722;SDS011;67811;42.656;23.394;2023-02-15T07:27:01;28.98;;;15.20;;
77722;SDS011;67811;42.656;23.394;2023-02-15T07:29:33;27.75;;;14.43;;
77722;SDS011;67811;42.656;23.394;2023-02-15T07:32:04;27.67;;;15.65;;
77722;SDS011;67811;42.656;23.394;2023-02-15T07:34:34;23.10;;;14.32;;
77722;SDS011;67811;42.656;23.394;2023-02-15T07:37:05;22.30;;;14.18;;
77722;SDS011;67811;42.656;23.394;2023-02-15T07:39:36;20.08;;;12.77;;
77722;SDS011;67811;42.656;23.394;2023-02-15T07:42:06;21.27;;;13.75;;
77722;SDS011;67811;42.656;23.394;2023-02-15T07:44:38;26.20;;;14.25;;
77722;SDS011;67811;42.656;23.394;2023-02-15T07:47:09;27.52;;;14.23;;
77722;SDS011;67811;42.656;23.394;2023-02-15T07:49:39;24.40;;;13.30;;
77722;SDS011;67811;42.656;23.394;2023-02-15T07:52:10;19.38;;;13.23;;
77722;SDS011;67811;42.656;23.394;2023-02-15T07:54:41;20.83;;;12.98;;
77722;SDS011;67811;42.656;23.394;2023-02-15T07:57:11;19.83;;;11.88;;
77722;SDS011;67811;42.656;23.394;2023-02-15T07:59:43;23.25;;;13.30;;
77722;SDS011;67811;42.656;23.394;2023-02-15T08:02:14;28.58;;;14.85;;
77722;SDS011;67811;42.656;23.394;2023-02-15T08:04:44;23.25;;;14.27;;
77722;SDS011;67811;42.656;23.394;2023-02-15T08:07:15;22.65;;;13.77;;
77722;SDS011;67811;42.656;23.394;2023-02-15T08:09:45;25.15;;;14.05;;
77722;SDS011;67811;42.656;23.394;2023-02-15T08:12:16;20.60;;;14.57;;
77722;SDS011;67811;42.656;23.394;2023-02-15T08:14:48;23.48;;;15.00;;
77722;SDS011;67811;42.656;23.394;2023-02-15T08:17:18;24.23;;;14.80;;
77722;SDS011;67811;42.656;23.394;2023-02-15T08:19:49;24.52;;;15.18;;
77722;SDS011;67811;42.656;23.394;2023-02-15T08:22:20;22.73;;;14.30;;
77722;SDS011;67811;42.656;23.394;2023-02-15T08:24:50;24.70;;;13.25;;
77722;SDS011;67811;42.656;23.394;2023-02-15T08:27:21;27.05;;;14.18;;
77722;SDS011;67811;42.656;23.394;2023-02-15T08:29:53;25.20;;;14.18;;
77722;SDS011;67811;42.656;23.394;2023-02-15T08:32:23;24.23;;;13.75;;
77722;SDS011;67811;42.656;23.394;2023-02-15T08:34:54;23.55;;;15.48;;
77722;SDS011;67811;42.656;23.394;2023-02-15T08:37:24;26.83;;;14.32;;
77722;SDS011;67811;42.656;23.394;2023-02-15T08:39:56;23.85;;;14.63;;
77722;SDS011;67811;42.656;23.394;2023-02-15T08:42:26;23.92;;;15.05;;
77722;SDS011;67811;42.656;23.394;2023-02-15T08:44:58;23.30;;;13.60;;
77722;SDS011;67811;42.656;23.394;2023-02-15T08:47:29;24.13;;;14.02;;
77722;SDS011;67811;42.656;23.394;2023-02-15T08:49:59;24.67;;;14.02;;
77722;SDS011;67811;42.656;23.394;2023-02-15T08:52:30;29.08;;;15.25;;
77722;SDS011;67811;42.656;23.394;2023-02-15T08:55:00;24.80;;;13.50;;
77722;SDS011;67811;42.656;23.394;2023-02-15T08:57:31;26.50;;;15.10;;
77722;SDS011;67811;42.656;23.394;2023-02-15T09:00:04;27.42;;;15.23;;
77722;SDS011;67811;42.656;23.394;2023-02-15T09:02:35;25.77;;;14.07;;
77722;SDS011;67811;42.656;23.394;2023-02-15T09:05:06;29.70;;;14.60;;
77722;SDS011;67811;42.656;23.394;2023-02-15T09:07:37;26.92;;;13.52;;
77722;SDS011;67811;42.656;23.394;2023-02-15T09:10:08;26.88;;;13.98;;
77722;SDS011;67811;42.656;23.394;2023-02-15T09:12:38;22.63;;;12.38;;
77722;SDS011;67811;42.656;23.394;2023-02-15T09:15:11;18.33;;;12.00;;
77722;SDS011;67811;42.656;23.394;2023-02-15T09:17:41;28.50;;;12.68;;
77722;SDS011;67811;42.656;23.394;2023-02-15T09:20:12;23.52;;;13.48;;
77722;SDS011;67811;42.656;23.394;2023-02-15T09:22:42;23.02;;;13.05;;
77722;SDS011;67811;42.656;23.394;2023-02-15T09:25:13;20.73;;;12.00;;
77722;SDS011;67811;42.656;23.394;2023-02-15T09:27:44;29.77;;;12.88;;
77722;SDS011;67811;42.656;23.394;2023-02-15T09:30:16;18.52;;;11.07;;
77722;SDS011;67811;42.656;23.394;2023-02-15T09:32:47;17.95;;;11.20;;
77722;SDS011;67811;42.656;23.394;2023-02-15T09:35:17;20.55;;;12.05;;
77722;SDS011;67811;42.656;23.394;2023-02-15T09:37:48;20.67;;;12.43;;
77722;SDS011;67811;42.656;23.394;2023-02-15T09:40:19;29.08;;;14.30;;
77722;SDS011;67811;42.656;23.394;2023-02-15T09:43:02;28.25;;;13.18;;
77722;SDS011;67811;42.656;23.394;2023-02-15T09:45:45;26.20;;;13.05;;
77722;SDS011;67811;42.656;23.394;2023-02-15T09:48:40;24.65;;;12.43;;
77722;SDS011;67811;42.656;23.394;2023-02-15T09:51:15;19.98;;;12.68;;
77722;SDS011;67811;42.656;23.394;2023-02-15T09:53:58;24.98;;;14.05;;
77722;SDS011;67811;42.656;23.394;2023-02-15T09:56:41;20.90;;;13.15;;
77722;SDS011;67811;42.656;23.394;2023-02-15T09:59:19;29.10;;;12.98;;
77722;SDS011;67811;42.656;23.394;2023-02-15T10:02:02;23.27;;;13.52;;
77722;SDS011;67811;42.656;23.394;2023-02-15T10:04:49;21.27;;;14.07;;
77722;SDS011;67811;42.656;23.394;2023-02-15T10:07:31;22.83;;;12.80;;
77722;SDS011;67811;42.656;23.394;2023-02-15T10:10:15;19.98;;;11.52;;
77722;SDS011;67811;42.656;23.394;2023-02-15T10:13:00;22.33;;;13.13;;
77722;SDS011;67811;42.656;23.394;2023-02-15T10:15:44;22.33;;;12.45;;
77722;SDS011;67811;42.656;23.394;2023-02-15T10:18:41;27.00;;;14.30;;
77722;SDS011;67811;42.656;23.394;2023-02-15T10:21:29;21.23;;;12.82;;
77722;SDS011;67811;42.656;23.394;2023-02-15T10:24:16;24.75;;;12.98;;
77722;SDS011;67811;42.656;23.394;2023-02-15T10:27:01;24.98;;;14.20;;
77722;SDS011;67811;42.656;23.394;2023-02-15T10:29:39;29.50;;;13.18;;
77722;SDS011;67811;42.656;23.394;2023-02-15T10:32:21;23.35;;;12.63;;
77722;SDS011;67811;42.656;23.394;2023-02-15T10:34:56;21.65;;;12.93;;
77722;SDS011;67811;42.656;23.394;2023-02-15T10:37:54;22.38;;;12.65;;
77722;SDS011;67811;42.656;23.394;2023-02-15T10:40:34;25.90;;;13.80;;
77722;SDS011;67811;42.656;23.394;2023-02-15T10:45:56;23.08;;;14.10;;
77722;SDS011;67811;42.656;23.394;2023-02-15T10:51:44;23.85;;;13.20;;
77722;SDS011;67811;42.656;23.394;2023-02-15T10:54:28;23.33;;;13.40;;
77722;SDS011;67811;42.656;23.394;2023-02-15T10:57:09;23.15;;;13.18;;
77722;SDS011;67811;42.656;23.394;2023-02-15T10:59:52;24.65;;;14.02;;
77722;SDS011;67811;42.656;23.394;2023-02-15T11:02:36;22.40;;;13.85;;
77722;SDS011;67811;42.656;23.394;2023-02-15T11:05:32;25.52;;;14.07;;
77722;SDS011;67811;42.656;23.394;2023-02-15T11:08:10;22.77;;;13.70;;
77722;SDS011;67811;42.656;23.394;2023-02-15T11:10:42;23.23;;;13.82;;
77722;SDS011;67811;42.656;23.394;2023-02-15T11:13:18;23.23;;;12.77;;
77722;SDS011;67811;42.656;23.394;2023-02-15T11:15:51;23.40;;;13.23;;
77722;SDS011;67811;42.656;23.394;2023-02-15T11:18:27;24.17;;;13.32;;
77722;SDS011;67811;42.656;23.394;2023-02-15T11:21:03;24.10;;;14.90;;
77722;SDS011;67811;42.656;23.394;2023-02-15T11:23:41;27.45;;;14.20;;
77722;SDS011;67811;42.656;23.394;2023-02-15T11:26:14;33.63;;;15.65;;
77722;SDS011;67811;42.656;23.394;2023-02-15T11:28:51;27.15;;;14.68;;
77722;SDS011;67811;42.656;23.394;2023-02-15T11:31:26;28.70;;;14.57;;
77722;SDS011;67811;42.656;23.394;2023-02-15T11:34:02;26.50;;;14.73;;
77722;SDS011;67811;42.656;23.394;2023-02-15T11:39:13;28.70;;;13.35;;
77722;SDS011;67811;42.656;23.394;2023-02-15T11:41:46;30.52;;;14.55;;
77722;SDS011;67811;42.656;23.394;2023-02-15T11:44:21;28.02;;;14.35;;
77722;SDS011;67811;42.656;23.394;2023-02-15T11:46:55;25.75;;;15.65;;
77722;SDS011;67811;42.656;23.394;2023-02-15T11:49:27;26.05;;;14.18;;
77722;SDS011;67811;42.656;23.394;2023-02-15T11:52:00;26.08;;;14.48;;
77722;SDS011;67811;42.656;23.394;2023-02-15T11:54:36;22.40;;;14.15;;
77722;SDS011;67811;42.656;23.394;2023-02-15T11:57:12;24.95;;;14.07;;
77722;SDS011;67811;42.656;23.394;2023-02-15T11:59:49;28.27;;;15.13;;
77722;SDS011;67811;42.656;23.394;2023-02-15T12:02:25;23.38;;;14.02;;
77722;SDS011;67811;42.656;23.394;2023-02-15T12:04:56;27.52;;;14.88;;
77722;SDS011;67811;42.656;23.394;2023-02-15T12:07:32;25.30;;;14.20;;
77722;SDS011;67811;42.656;23.394;2023-02-15T12:10:13;26.52;;;14.32;;
77722;SDS011;67811;42.656;23.394;2023-02-15T12:12:49;30.90;;;13.55;;
77722;SDS011;67811;42.656;23.394;2023-02-15T12:15:40;25.13;;;15.02;;
77722;SDS011;67811;42.656;23.394;2023-02-15T12:18:17;33.38;;;15.70;;
77722;SDS011;67811;42.656;23.394;2023-02-15T12:20:51;21.33;;;13.73;;
77722;SDS011;67811;42.656;23.394;2023-02-15T12:23:22;22.48;;;13.38;;
77722;SDS011;67811;42.656;23.394;2023-02-15T12:25:54;28.23;;;12.82;;
77722;SDS011;67811;42.656;23.394;2023-02-15T12:28:29;28.85;;;13.45;;
77722;SDS011;67811;42.656;23.394;2023-02-15T12:31:07;26.40;;;14.68;;
77722;SDS011;67811;42.656;23.394;2023-02-15T12:33:41;25.92;;;14.07;;
77722;SDS011;67811;42.656;23.394;2023-02-15T12:36:15;25.90;;;14.68;;
77722;SDS011;67811;42.656;23.394;2023-02-15T12:39:05;23.40;;;12.60;;
77722;SDS011;67811;42.656;23.394;2023-02-15T12:41:57;26.02;;;14.23;;
77722;SDS011;67811;42.656;23.394;2023-02-15T12:44:31;28.20;;;15.20;;
77722;SDS011;67811;42.656;23.394;2023-02-15T12:47:03;32.05;;;14.23;;
77722;SDS011;67811;42.656;23.394;2023-02-15T12:49:35;28.95;;;15.20;;
77722;SDS011;67811;42.656;23.394;2023-02-15T12:52:22;25.92;;;13.95;;
77722;SDS011;67811;42.656;23.394;2023-02-15T12:54:55;25.65;;;14.50;;
77722;SDS011;67811;42.656;23.394;2023-02-15T12:57:41;25.20;;;14.48;;
77722;SDS011;67811;42.656;23.394;2023-02-15T13:00:24;26.40;;;15.82;;
77722;SDS011;67811;42.656;23.394;2023-02-15T13:02:57;25.63;;;15.05;;
77722;SDS011;67811;42.656;23.394;2023-02-15T13:05:31;31.38;;;15.20;;
77722;SDS011;67811;42.656;23.394;2023-02-15T13:08:08;27.98;;;14.88;;
77722;SDS011;67811;42.656;23.394;2023-02-15T13:10:43;31.20;;;16.38;;
77722;SDS011;67811;42.656;23.394;2023-02-15T13:13:25;29.35;;;15.55;;
77722;SDS011;67811;42.656;23.394;2023-02-15T13:15:58;29.42;;;15.95;;
77722;SDS011;67811;42.656;23.394;2023-02-15T13:18:32;25.02;;;14.52;;
77722;SDS011;67811;42.656;23.394;2023-02-15T13:21:10;24.83;;;14.07;;
77722;SDS011;67811;42.656;23.394;2023-02-15T13:23:44;30.38;;;15.20;;
77722;SDS011;67811;42.656;23.394;2023-02-15T13:26:18;28.85;;;16.10;;
77722;SDS011;67811;42.656;23.394;2023-02-15T13:28:53;31.30;;;15.75;;
77722;SDS011;67811;42.656;23.394;2023-02-15T13:31:27;28.45;;;14.25;;
77722;SDS011;67811;42.656;23.394;2023-02-15T13:33:59;31.48;;;16.52;;
77722;SDS011;67811;42.656;23.394;2023-02-15T13:36:34;26.27;;;14.77;;
77722;SDS011;67811;42.656;23.394;2023-02-15T13:39:14;29.58;;;16.38;;
77722;SDS011;67811;42.656;23.394;2023-02-15T13:41:53;34.00;;;17.73;;
77722;SDS011;67811;42.656;23.394;2023-02-15T13:44:43;28.58;;;16.20;;
77722;SDS011;67811;42.656;23.394;2023-02-15T13:47:32;28.70;;;14.65;;
77722;SDS011;67811;42.656;23.394;2023-02-15T13:50:29;31.20;;;14.63;;
77722;SDS011;67811;42.656;23.394;2023-02-15T13:53:15;26.83;;;16.13;;
77722;SDS011;67811;42.656;23.394;2023-02-15T13:55:55;28.25;;;14.80;;
77722;SDS011;67811;42.656;23.394;2023-02-15T13:58:40;28.20;;;15.52;;
77722;SDS011;67811;42.656;23.394;2023-02-15T14:01:27;29.08;;;15.73;;
77722;SDS011;67811;42.656;23.394;2023-02-15T14:04:19;24.80;;;14.30;;
77722;SDS011;67811;42.656;23.394;2023-02-15T14:10:28;27.67;;;16.13;;
77722;SDS011;67811;42.656;23.394;2023-02-15T14:16:18;26.90;;;15.02;;
77722;SDS011;67811;42.656;23.394;2023-02-15T14:18:58;27.20;;;16.25;;
77722;SDS011;67811;42.656;23.394;2023-02-15T14:21:36;28.70;;;15.90;;
77722;SDS011;67811;42.656;23.394;2023-02-15T14:24:15;30.75;;;15.80;;
77722;SDS011;67811;42.656;23.394;2023-02-15T14:26:56;31.42;;;16.17;;
77722;SDS011;67811;42.656;23.394;2023-02-15T14:29:40;31.83;;;16.80;;
77722;SDS011;67811;42.656;23.394;2023-02-15T14:32:20;28.52;;;15.43;;
77722;SDS011;67811;42.656;23.394;2023-02-15T14:34:57;27.27;;;16.00;;
77722;SDS011;67811;42.656;23.394;2023-02-15T14:37:33;25.23;;;14.25;;
77722;SDS011;67811;42.656;23.394;2023-02-15T14:40:15;23.38;;;13.43;;
77722;SDS011;67811;42.656;23.394;2023-02-15T14:42:55;27.85;;;15.25;;
77722;SDS011;67811;42.656;23.394;2023-02-15T14:45:29;30.98;;;16.02;;
77722;SDS011;67811;42.656;23.394;2023-02-15T14:50:44;30.58;;;15.13;;
77722;SDS011;67811;42.656;23.394;2023-02-15T14:53:24;28.27;;;14.07;;
77722;SDS011;67811;42.656;23.394;2023-02-15T14:58:59;30.73;;;16.20;;
77722;SDS011;67811;42.656;23.394;2023-02-15T15:01:50;33.13;;;15.88;;
77722;SDS011;67811;42.656;23.394;2023-02-15T15:04:29;29.15;;;16.65;;
77722;SDS011;67811;42.656;23.394;2023-02-15T15:07:13;35.03;;;16.92;;
77722;SDS011;67811;42.656;23.394;2023-02-15T15:09:57;27.77;;;16.02;;
77722;SDS011;67811;42.656;23.394;2023-02-15T15:12:39;32.95;;;17.85;;
77722;SDS011;67811;42.656;23.394;2023-02-15T15:15:11;36.35;;;17.48;;